Time;durP1;ratioP1;P1;durP2;ratioP2;P2;SDS_P1;SDS_P2;PMS_P1;PMS_P2;Temp;Humidity;BMP_temperature;BMP_pressure;BME280_temperature;BME280_humidity;BME280_pressure;Samples;Min_cycle;Max_cycle;Signal;HPM_P1;HPM_P2
2021/10/08 00:01:31;;;;;;;16.25;7.03;;;;;;;14.07;71.13;102256.94;5033349;28;20475;-69
2021/10/08 00:04:00;;;;;;;15.23;7.13;;;;;;;14.01;71.17;102257.31;5038456;28;20045;-66
2021/10/08 00:06:27;;;;;;;12.93;6.50;;;;;;;13.87;71.92;102251.72;5038485;28;20108;-65
2021/10/08 00:08:56;;;;;;;14.55;7.20;;;;;;;13.90;71.87;102251.09;5037592;28;20307;-66
2021/10/08 00:11:24;;;;;;;15.55;6.80;;;;;;;13.92;71.60;102245.25;5038097;28;20042;-66
2021/10/08 00:13:53;;;;;;;16.58;7.38;;;;;;;13.91;71.96;102258.31;5038340;28;20061;-66
2021/10/08 00:16:20;;;;;;;14.75;7.40;;;;;;;13.97;71.59;102247.97;5038007;28;20061;-65
2021/10/08 00:18:48;;;;;;;13.38;7.40;;;;;;;14.09;71.47;102249.16;5037695;28;20056;-66
2021/10/08 00:21:15;;;;;;;15.68;7.65;;;;;;;14.04;71.20;102257.56;5037812;28;20072;-66
2021/10/08 00:23:50;;;;;;;14.82;6.55;;;;;;;14.03;71.44;102249.53;5038137;28;20052;-71
2021/10/08 00:26:29;;;;;;;12.90;6.72;;;;;;;14.03;71.28;102247.59;5022780;28;20049;-67
2021/10/08 00:28:57;;;;;;;15.05;6.53;;;;;;;13.80;72.11;102256.78;5038580;28;20053;-70
2021/10/08 00:31:25;;;;;;;13.93;6.57;;;;;;;13.82;72.68;102259.25;5038069;28;20045;-70
2021/10/08 00:33:58;;;;;;;13.55;6.85;;;;;;;13.85;72.73;102261.44;5020176;28;20057;-71
2021/10/08 00:36:28;;;;;;;14.75;6.88;;;;;;;13.92;71.93;102257.19;5021332;28;20045;-71
2021/10/08 00:38:55;;;;;;;12.60;7.38;;;;;;;13.99;71.71;102259.56;5040288;28;20053;-70
2021/10/08 00:41:24;;;;;;;16.58;6.70;;;;;;;13.68;72.93;102270.25;5056557;28;20049;-69
2021/10/08 00:43:57;;;;;;;15.10;6.70;;;;;;;13.57;73.38;102265.94;5057508;28;20056;-67
2021/10/08 00:46:25;;;;;;;14.23;6.75;;;;;;;13.60;73.41;102264.53;5039283;28;20064;-66
2021/10/08 00:48:53;;;;;;;16.85;7.38;;;;;;;13.48;74.06;102263.00;5056172;28;20045;-67
2021/10/08 00:51:22;;;;;;;14.77;6.43;;;;;;;13.76;73.04;102261.28;5057672;28;20060;-67
2021/10/08 00:53:50;;;;;;;11.70;6.55;;;;;;;13.79;73.08;102271.75;5055384;28;20041;-66
2021/10/08 00:56:18;;;;;;;13.75;7.05;;;;;;;13.62;73.59;102267.81;5057596;28;20067;-66
2021/10/08 00:58:45;;;;;;;13.43;6.78;;;;;;;13.69;73.52;102276.59;5057216;28;20079;-65
2021/10/08 01:01:16;;;;;;;18.88;7.50;;;;;;;13.71;73.24;102275.19;5056047;28;20045;-66
2021/10/08 01:03:44;;;;;;;15.07;6.72;;;;;;;13.52;74.22;102268.78;5032518;28;20048;-65
2021/10/08 01:06:12;;;;;;;14.00;7.13;;;;;;;13.46;74.54;102273.56;5035856;28;20053;-66
2021/10/08 01:08:40;;;;;;;14.52;7.57;;;;;;;13.32;75.17;102272.59;5036600;28;20069;-66
2021/10/08 01:11:08;;;;;;;17.40;8.27;;;;;;;13.14;76.12;102272.53;5035459;28;20136;-67
2021/10/08 01:13:38;;;;;;;14.80;7.35;;;;;;;13.01;77.58;102265.72;5036781;28;20060;-66
2021/10/08 01:16:05;;;;;;;13.45;7.25;;;;;;;13.40;76.39;102263.69;5035682;28;20053;-66
2021/10/08 01:18:39;;;;;;;16.58;7.13;;;;;;;13.36;75.60;102265.38;5035869;28;20061;-67
2021/10/08 01:21:07;;;;;;;12.15;7.53;;;;;;;13.39;75.89;102263.94;5035431;28;20058;-67
2021/10/08 01:23:34;;;;;;;13.70;7.50;;;;;;;13.23;76.05;102266.06;5035551;28;20048;-66
2021/10/08 01:26:03;;;;;;;13.35;7.40;;;;;;;13.02;77.33;102267.38;5034920;28;20053;-67
2021/10/08 01:28:34;;;;;;;17.90;8.65;;;;;;;12.95;77.03;102258.59;5035750;28;20075;-66
2021/10/08 01:31:06;;;;;;;16.33;8.23;;;;;;;12.82;77.70;102262.03;5035251;28;20060;-66
2021/10/08 01:34:00;;;;;;;15.55;7.95;;;;;;;12.77;78.54;102267.63;5034332;28;20080;-66
2021/10/08 01:36:33;;;;;;;15.88;7.75;;;;;;;12.76;78.87;102271.47;5035490;28;20079;-66
2021/10/08 01:39:05;;;;;;;17.67;7.90;;;;;;;12.85;78.43;102264.22;5040410;28;20108;-65
2021/10/08 01:41:38;;;;;;;17.00;8.68;;;;;;;12.45;79.46;102272.84;5055061;28;20045;-66
2021/10/08 01:44:06;;;;;;;15.57;7.57;;;;;;;12.58;79.66;102266.69;5055261;28;20083;-66
2021/10/08 01:46:33;;;;;;;18.40;7.78;;;;;;;12.76;78.90;102267.91;5054962;28;20055;-66
2021/10/08 01:49:02;;;;;;;18.05;8.48;;;;;;;12.76;78.48;102276.22;5054670;28;20045;-65
2021/10/08 01:51:32;;;;;;;16.55;8.30;;;;;;;12.75;78.51;102278.13;5054664;28;20834;-65
2021/10/08 01:54:00;;;;;;;18.65;8.80;;;;;;;12.30;80.29;102272.97;5054566;28;20053;-65
2021/10/08 01:56:27;;;;;;;21.98;9.43;;;;;;;12.39;80.67;102269.34;5055062;28;20053;-65
2021/10/08 01:59:01;;;;;;;17.80;8.50;;;;;;;12.60;79.85;102272.75;5054577;28;20060;-67
2021/10/08 02:01:31;;;;;;;17.20;7.95;;;;;;;12.83;78.74;102271.97;5038753;28;20408;-65
2021/10/08 02:04:03;;;;;;;16.90;8.00;;;;;;;12.45;79.83;102272.84;5049445;28;20619;-66
2021/10/08 02:06:30;;;;;;;17.85;8.32;;;;;;;12.52;79.68;102270.59;5017690;28;20611;-65
2021/10/08 02:08:58;;;;;;;13.75;8.98;;;;;;;12.58;79.77;102272.22;5034381;28;20056;-66
2021/10/08 02:11:29;;;;;;;15.55;8.30;;;;;;;12.49;80.10;102268.41;5034411;28;20045;-66
2021/10/08 02:13:56;;;;;;;17.30;8.90;;;;;;;12.41;80.29;102267.06;5035790;28;20049;-65
2021/10/08 02:16:24;;;;;;;18.38;9.50;;;;;;;12.42;80.54;102263.22;5034521;28;20097;-66
2021/10/08 02:18:59;;;;;;;19.48;9.00;;;;;;;12.64;79.83;102259.19;5017475;28;20045;-65
2021/10/08 02:21:28;;;;;;;14.73;8.88;;;;;;;12.73;79.22;102272.06;5033942;28;20064;-65
2021/10/08 02:23:57;;;;;;;18.98;9.23;;;;;;;12.64;78.97;102268.28;5034460;28;20045;-65
2021/10/08 02:26:24;;;;;;;15.10;8.82;;;;;;;12.52;79.96;102267.81;5034585;28;20053;-66
2021/10/08 02:28:52;;;;;;;19.88;9.43;;;;;;;12.35;80.47;102264.66;5034421;28;20045;-66
2021/10/08 02:31:26;;;;;;;18.15;8.80;;;;;;;12.41;80.61;102258.00;5034311;28;20057;-65
2021/10/08 02:33:53;;;;;;;15.68;9.13;;;;;;;12.25;80.88;102265.56;5034273;28;20412;-67
2021/10/08 02:36:20;;;;;;;21.13;9.98;;;;;;;12.05;82.32;102265.69;5035890;28;20385;-66
2021/10/08 02:38:48;;;;;;;14.90;8.88;;;;;;;12.25;81.77;102268.31;5021112;28;20045;-66
2021/10/08 02:41:15;;;;;;;17.30;9.15;;;;;;;12.36;80.72;102260.78;5053773;28;20788;-66
2021/10/08 02:43:42;;;;;;;16.48;9.05;;;;;;;12.36;81.28;102271.84;5054159;28;20068;-66
2021/10/08 02:46:11;;;;;;;18.45;9.18;;;;;;;12.43;81.11;102267.63;5053849;28;20055;-66
2021/10/08 02:48:38;;;;;;;14.90;8.70;;;;;;;12.42;81.00;102263.22;5055386;28;20056;-65
2021/10/08 02:51:05;;;;;;;14.40;8.82;;;;;;;12.42;80.88;102270.69;5053901;28;20479;-66
2021/10/08 02:53:34;;;;;;;14.85;8.55;;;;;;;12.28;81.08;102264.97;5036861;28;20052;-66
2021/10/08 02:56:04;;;;;;;17.45;9.07;;;;;;;12.42;81.20;102265.16;5053494;28;20049;-66
2021/10/08 02:58:31;;;;;;;15.55;8.45;;;;;;;12.57;80.17;102264.22;5055499;28;20049;-66
2021/10/08 03:01:00;;;;;;;17.98;8.95;;;;;;;12.50;80.38;102263.72;5053403;28;20049;-66
2021/10/08 03:03:27;;;;;;;15.68;9.25;;;;;;;12.37;80.69;102265.19;5047653;28;20064;-66
2021/10/08 03:05:54;;;;;;;13.57;8.90;;;;;;;11.93;82.93;102275.41;5047223;28;20049;-65
2021/10/08 03:08:25;;;;;;;18.08;8.63;;;;;;;12.19;82.78;102263.09;5034330;28;20056;-65
2021/10/08 03:10:52;;;;;;;15.85;9.18;;;;;;;12.06;82.42;102277.56;5033384;28;20440;-66
2021/10/08 03:13:20;;;;;;;19.88;9.23;;;;;;;12.28;82.65;102261.38;5033698;28;20400;-66
2021/10/08 03:15:50;;;;;;;15.80;9.23;;;;;;;12.28;81.87;102264.16;5033613;28;20049;-66
2021/10/08 03:18:17;;;;;;;16.20;9.05;;;;;;;12.35;81.69;102261.88;5033836;28;20053;-65
2021/10/08 03:20:44;;;;;;;17.73;9.68;;;;;;;12.00;82.46;102270.41;5033735;28;20623;-66
2021/10/08 03:23:12;;;;;;;13.27;9.20;;;;;;;12.15;82.83;102265.59;5033788;28;20060;-65
2021/10/08 03:25:39;;;;;;;15.18;9.60;;;;;;;12.10;82.82;102264.84;5034750;28;20060;-66
2021/10/08 03:28:09;;;;;;;18.15;8.52;;;;;;;12.00;83.07;102271.25;5033748;28;20504;-66
2021/10/08 03:30:36;;;;;;;15.02;8.70;;;;;;;12.42;81.67;102270.69;5033344;28;20480;-66
2021/10/08 03:33:05;;;;;;;18.17;9.63;;;;;;;12.27;81.33;102268.03;5034245;28;20440;-66
2021/10/08 03:35:32;;;;;;;19.05;9.27;;;;;;;12.11;82.26;102281.13;5037644;28;20409;-65
2021/10/08 03:38:09;;;;;;;16.58;9.35;;;;;;;12.07;82.44;102276.44;5037864;28;20064;-66
2021/10/08 03:40:39;;;;;;;19.67;9.23;;;;;;;12.08;82.65;102278.91;5056631;28;20064;-66
2021/10/08 03:43:06;;;;;;;16.50;8.80;;;;;;;12.14;82.53;102272.25;5057437;28;20052;-67
2021/10/08 03:45:43;;;;;;;18.05;9.60;;;;;;;12.04;82.64;102274.25;5058690;28;20123;-65
2021/10/08 03:51:02;;;;;;;18.90;9.80;;;;;;;11.94;83.30;102277.88;5057280;28;20211;-65
2021/10/08 03:53:31;;;;;;;16.17;9.73;;;;;;;12.05;82.71;102279.50;5058658;28;20057;-66
2021/10/08 03:55:58;;;;;;;14.88;9.88;;;;;;;11.95;82.36;102273.19;5040461;28;20056;-67
2021/10/08 03:58:26;;;;;;;23.20;10.10;;;;;;;11.79;83.19;102277.97;5041271;28;20049;-66
2021/10/08 04:00:54;;;;;;;19.08;9.52;;;;;;;11.52;84.52;102277.53;5056190;28;20056;-66
2021/10/08 04:03:23;;;;;;;15.45;9.07;;;;;;;11.62;84.34;102280.25;5040454;28;20056;-65
2021/10/08 04:05:52;;;;;;;18.77;10.40;;;;;;;11.70;84.37;102281.63;5036362;28;20050;-66
2021/10/08 04:08:21;;;;;;;16.67;9.63;;;;;;;11.73;84.05;102283.81;5033772;28;20065;-66
2021/10/08 04:10:52;;;;;;;15.68;9.68;;;;;;;11.63;84.58;102281.06;5018299;28;20050;-70
2021/10/08 04:13:21;;;;;;;20.83;10.02;;;;;;;11.74;84.30;102289.03;5016618;28;20065;-69
2021/10/08 04:15:50;;;;;;;18.45;9.55;;;;;;;11.87;83.40;102282.09;5019376;28;20046;-70
2021/10/08 04:18:19;;;;;;;16.92;9.20;;;;;;;12.18;82.50;102278.88;4985730;28;20061;-70
2021/10/08 04:20:50;;;;;;;19.33;9.60;;;;;;;12.28;81.24;102273.28;5001944;28;20054;-69
2021/10/08 04:23:20;;;;;;;22.75;10.10;;;;;;;12.12;81.98;102291.06;5000574;28;20409;-70
2021/10/08 04:25:49;;;;;;;17.45;10.15;;;;;;;11.92;82.41;102290.34;5016660;28;20060;-70
2021/10/08 04:28:17;;;;;;;19.42;9.48;;;;;;;12.02;82.55;102295.81;5033533;28;20042;-69
2021/10/08 04:30:44;;;;;;;20.48;10.88;;;;;;;12.02;82.81;102295.81;5032796;28;20054;-69
2021/10/08 04:33:21;;;;;;;17.38;10.77;;;;;;;12.10;82.28;102292.47;5016792;28;20080;-70
2021/10/08 04:35:59;;;;;;;16.70;10.10;;;;;;;12.40;81.17;102289.47;5017270;28;20050;-69
2021/10/08 04:38:30;;;;;;;15.80;10.10;;;;;;;12.30;80.46;102286.78;5035029;28;20046;-69
2021/10/08 04:41:02;;;;;;;20.27;10.25;;;;;;;12.16;81.10;102294.91;5056425;28;20060;-66
2021/10/08 04:43:30;;;;;;;16.73;10.38;;;;;;;11.58;84.31;102289.34;5022607;28;20056;-70
2021/10/08 04:46:02;;;;;;;17.98;10.30;;;;;;;11.73;84.48;102290.16;5055748;28;20041;-70
2021/10/08 04:48:30;;;;;;;20.42;10.95;;;;;;;11.87;84.01;102287.63;5039300;28;20622;-69
2021/10/08 04:50:58;;;;;;;14.95;9.85;;;;;;;11.95;83.30;102287.84;5055695;28;20057;-70
2021/10/08 04:53:25;;;;;;;24.52;10.77;;;;;;;11.85;83.03;102296.19;5056176;28;20049;-70
2021/10/08 04:55:55;;;;;;;19.83;10.93;;;;;;;12.11;82.40;102289.41;5040084;28;20063;-70
2021/10/08 04:58:23;;;;;;;20.67;10.82;;;;;;;11.96;83.14;102289.47;5056271;28;20053;-65
2021/10/08 05:00:54;;;;;;;21.60;11.35;;;;;;;11.92;83.57;102291.19;5023889;28;20400;-65
2021/10/08 05:03:23;;;;;;;18.05;11.40;;;;;;;12.02;83.14;102291.13;5039222;28;20434;-70
2021/10/08 05:05:52;;;;;;;24.90;11.35;;;;;;;12.13;82.94;102294.66;5025597;28;20122;-69
2021/10/08 05:08:30;;;;;;;18.90;10.52;;;;;;;12.15;82.90;102295.19;5015997;28;20060;-70
2021/10/08 05:10:59;;;;;;;20.65;12.30;;;;;;;12.18;82.44;102286.31;4999559;28;20160;-69
2021/10/08 05:13:27;;;;;;;26.40;11.90;;;;;;;12.04;82.92;102286.13;5016119;28;20065;-65
2021/10/08 05:15:55;;;;;;;18.98;12.45;;;;;;;11.95;83.22;102295.28;5032671;28;20426;-69
2021/10/08 05:18:24;;;;;;;18.23;11.80;;;;;;;11.91;83.91;102288.69;5032832;28;20119;-69
2021/10/08 05:20:52;;;;;;;21.13;11.82;;;;;;;12.07;83.33;102299.38;5032386;28;20045;-69
2021/10/08 05:23:20;;;;;;;20.50;12.52;;;;;;;12.16;82.78;102302.34;5032408;28;20142;-70
2021/10/08 05:25:48;;;;;;;21.38;12.68;;;;;;;11.99;83.06;102301.91;5032628;28;20049;-70
2021/10/08 05:28:16;;;;;;;20.27;12.38;;;;;;;11.81;84.01;102295.09;5016039;28;20062;-68
2021/10/08 05:30:44;;;;;;;22.77;11.98;;;;;;;11.92;83.98;102301.38;5032435;28;20057;-70
2021/10/08 05:33:13;;;;;;;24.20;11.73;;;;;;;11.93;83.54;102291.97;5031679;28;20046;-70
2021/10/08 05:35:40;;;;;;;21.60;13.05;;;;;;;11.96;83.66;102302.47;5035283;28;20068;-69
2021/10/08 05:38:08;;;;;;;22.60;13.23;;;;;;;11.74;84.02;102300.09;5019249;28;20064;-69
2021/10/08 05:40:35;;;;;;;34.17;13.40;;;;;;;11.74;84.52;102305.63;5043384;28;20050;-70
2021/10/08 05:43:03;;;;;;;25.50;12.13;;;;;;;11.79;84.50;102299.22;5035197;28;20049;-68
2021/10/08 05:45:34;;;;;;;18.17;11.75;;;;;;;11.80;84.26;102300.91;5036575;28;20489;-71
2021/10/08 05:48:02;;;;;;;17.83;11.73;;;;;;;11.89;83.62;102301.97;5019075;28;20049;-69
2021/10/08 05:50:31;;;;;;;20.63;12.48;;;;;;;11.70;84.22;102298.19;5008724;28;20408;-72
2021/10/08 05:52:59;;;;;;;22.35;13.07;;;;;;;12.14;83.77;102307.34;5028247;28;20053;-71
2021/10/08 05:55:27;;;;;;;19.38;11.63;;;;;;;11.85;83.33;102306.41;5034088;28;20050;-70
2021/10/08 05:57:56;;;;;;;27.38;13.77;;;;;;;11.20;86.86;102308.25;5035840;28;20045;-69
2021/10/08 06:00:24;;;;;;;26.25;14.13;;;;;;;11.28;87.47;102302.13;5033925;28;20144;-69
2021/10/08 06:02:52;;;;;;;23.40;13.13;;;;;;;11.26;87.42;102301.59;5015289;28;20147;-70
2021/10/08 06:05:24;;;;;;;21.30;14.10;;;;;;;11.03;88.98;102313.22;5031456;28;20041;-69
2021/10/08 06:07:51;;;;;;;26.13;13.85;;;;;;;11.07;88.79;102306.03;5030518;28;20155;-70
2021/10/08 06:10:22;;;;;;;21.40;13.27;;;;;;;11.31;88.22;102311.81;5027194;28;20060;-69
2021/10/08 06:12:50;;;;;;;22.08;14.02;;;;;;;11.15;88.02;102312.94;5019257;28;20049;-69
2021/10/08 06:15:18;;;;;;;26.77;14.50;;;;;;;10.93;89.92;102320.69;5033470;28;20083;-72
2021/10/08 06:17:47;;;;;;;25.70;14.10;;;;;;;10.71;91.19;102322.88;5048697;28;20046;-69
2021/10/08 06:20:16;;;;;;;23.17;13.95;;;;;;;10.81;90.87;102323.72;5032975;28;20056;-69
2021/10/08 06:22:46;;;;;;;22.27;13.40;;;;;;;10.92;90.39;102327.28;5032313;28;20045;-64
2021/10/08 06:25:18;;;;;;;28.17;13.95;;;;;;;10.77;90.69;102328.13;5015094;28;20049;-67
2021/10/08 06:27:47;;;;;;;30.60;14.05;;;;;;;10.74;90.88;102327.84;5031821;28;20060;-64
2021/10/08 06:30:14;;;;;;;22.88;13.30;;;;;;;11.12;91.18;102330.03;5016171;28;20052;-69
2021/10/08 06:32:41;;;;;;;24.98;13.43;;;;;;;10.95;89.55;102330.31;5031409;28;20049;-68
2021/10/08 06:35:10;;;;;;;22.08;12.60;;;;;;;11.07;91.52;102333.63;5033329;28;20049;-69
2021/10/08 06:37:37;;;;;;;21.90;13.73;;;;;;;10.99;89.74;102334.19;5030618;28;20626;-69
2021/10/08 06:40:06;;;;;;;22.38;13.57;;;;;;;10.98;88.86;102331.72;5032162;28;20065;-69
2021/10/08 06:42:33;;;;;;;32.17;13.73;;;;;;;11.32;89.24;102341.03;5031614;28;20086;-68
2021/10/08 06:45:18;;;;;;;25.33;14.45;;;;;;;11.14;87.94;102336.13;5031774;28;20049;-69
2021/10/08 06:47:46;;;;;;;22.65;14.20;;;;;;;11.16;87.64;102337.47;5033781;28;20049;-71
2021/10/08 06:50:15;;;;;;;23.77;14.23;;;;;;;10.98;88.24;102340.78;5032775;28;20657;-70
2021/10/08 06:52:42;;;;;;;25.52;13.85;;;;;;;11.22;88.74;102343.81;5032616;28;20037;-68
2021/10/08 06:55:12;;;;;;;23.77;14.18;;;;;;;11.09;87.82;102349.88;5031440;28;20436;-67
2021/10/08 06:57:40;;;;;;;23.33;14.55;;;;;;;11.32;87.69;102343.78;5034516;28;20045;-67
2021/10/08 07:00:08;;;;;;;23.70;14.30;;;;;;;11.23;87.69;102338.00;5037598;28;20053;-68
2021/10/08 07:03:05;;;;;;;27.35;15.27;;;;;;;11.38;87.26;102346.25;5042891;28;20053;-68
2021/10/08 07:05:36;;;;;;;22.27;13.55;;;;;;;11.40;87.25;102348.75;5031383;28;20053;-70
2021/10/08 07:08:06;;;;;;;26.40;15.68;;;;;;;11.12;87.67;102352.09;5032478;28;20567;-70
2021/10/08 07:10:37;;;;;;;25.95;15.18;;;;;;;11.24;88.17;102353.44;5037865;28;20048;-66
2021/10/08 07:13:05;;;;;;;24.38;14.45;;;;;;;11.61;86.75;102350.31;5034580;28;20060;-65
2021/10/08 07:15:32;;;;;;;25.60;16.30;;;;;;;11.60;85.41;102351.44;5034898;28;20082;-65
2021/10/08 07:18:00;;;;;;;27.75;15.63;;;;;;;11.58;86.65;102355.59;5034708;28;20571;-72
2021/10/08 07:20:29;;;;;;;31.05;16.45;;;;;;;11.71;86.09;102366.91;5034757;28;20052;-71
2021/10/08 07:22:57;;;;;;;27.10;16.38;;;;;;;11.67;86.07;102362.22;5034851;28;20420;-71
2021/10/08 07:25:29;;;;;;;28.50;17.40;;;;;;;11.30;88.19;102365.31;5050997;28;20057;-71
2021/10/08 07:27:57;;;;;;;30.25;16.98;;;;;;;11.41;88.50;102366.13;5033127;28;20058;-72
2021/10/08 07:30:25;;;;;;;24.60;15.50;;;;;;;11.66;87.21;102363.34;5012711;28;20053;-72
2021/10/08 07:32:53;;;;;;;30.05;16.50;;;;;;;12.14;85.62;102366.19;5015260;28;20061;-72
2021/10/08 07:35:20;;;;;;;26.48;16.02;;;;;;;12.55;83.80;102363.19;5029675;28;20050;-73
2021/10/08 07:37:47;;;;;;;28.30;16.65;;;;;;;12.61;82.14;102359.25;5031568;28;20548;-73
2021/10/08 07:40:15;;;;;;;29.52;17.52;;;;;;;12.20;82.95;102366.97;5029846;28;20207;-71
2021/10/08 07:42:44;;;;;;;28.48;18.10;;;;;;;11.86;84.25;102369.59;5033915;28;20073;-72
2021/10/08 07:45:11;;;;;;;28.25;17.73;;;;;;;11.66;85.38;102364.16;5037403;28;20049;-72
2021/10/08 07:47:39;;;;;;;32.88;18.20;;;;;;;11.82;85.28;102359.41;5033548;28;20064;-72
2021/10/08 07:50:07;;;;;;;33.75;17.25;;;;;;;12.05;84.16;102362.34;5032869;28;20045;-74
2021/10/08 07:52:35;;;;;;;27.17;17.67;;;;;;;11.94;84.35;102360.72;5014699;28;20069;-71
2021/10/08 07:55:04;;;;;;;28.17;17.63;;;;;;;11.96;84.62;102369.56;5033432;28;20041;-71
2021/10/08 07:57:35;;;;;;;37.75;17.90;;;;;;;12.22;83.89;102367.53;5031521;28;20045;-72
2021/10/08 08:00:04;;;;;;;29.48;18.40;;;;;;;12.33;82.58;102361.66;5031955;28;21920;-72
2021/10/08 08:02:39;;;;;;;29.98;16.00;;;;;;;12.55;82.01;102357.66;5031740;28;20377;-71
2021/10/08 08:05:07;;;;;;;24.92;17.45;;;;;;;12.17;81.58;102362.00;5032447;28;20121;-72
2021/10/08 08:07:34;;;;;;;26.15;16.58;;;;;;;12.48;81.71;102362.66;5031633;28;20464;-72
2021/10/08 08:10:03;;;;;;;24.55;17.27;;;;;;;12.34;80.84;102357.75;5032328;28;20042;-72
2021/10/08 08:12:31;;;;;;;34.13;17.33;;;;;;;12.51;80.87;102362.94;5031467;28;20049;-72
2021/10/08 08:14:58;;;;;;;32.20;17.52;;;;;;;12.62;80.20;102355.38;5033695;28;20053;-73
2021/10/08 08:20:49;;;;;;;21.58;15.95;;;;;;;12.99;77.54;102350.94;5034175;28;20064;-73
2021/10/08 08:23:21;;;;;;;27.77;15.50;;;;;;;12.78;77.91;102345.88;5001707;28;20061;-67
2021/10/08 08:25:49;;;;;;;25.70;14.50;;;;;;;13.04;76.84;102348.16;5018900;28;20103;-68
2021/10/08 08:28:24;;;;;;;23.65;13.95;;;;;;;13.09;75.82;102356.41;5038367;28;20049;-67
2021/10/08 08:30:57;;;;;;;20.63;14.57;;;;;;;12.46;77.57;102360.19;5040212;28;20051;-66
2021/10/08 08:33:24;;;;;;;28.55;14.05;;;;;;;12.71;77.58;102350.91;5034435;28;20038;-67
2021/10/08 08:35:51;;;;;;;22.05;13.93;;;;;;;12.84;76.73;102364.91;5035045;28;20045;-73
2021/10/08 08:38:19;;;;;;;21.13;13.75;;;;;;;13.04;76.19;102352.88;5037711;28;20041;-73
2021/10/08 08:40:46;;;;;;;23.17;14.65;;;;;;;12.90;75.29;102358.19;5020289;28;20060;-67
2021/10/08 08:43:13;;;;;;;26.13;14.38;;;;;;;13.05;75.33;102357.28;5036277;28;20056;-67
2021/10/08 08:45:41;;;;;;;21.45;13.70;;;;;;;13.29;74.09;102355.38;5037332;28;20053;-67
2021/10/08 08:48:11;;;;;;;20.73;14.02;;;;;;;13.30;73.51;102352.31;5034547;28;20057;-66
2021/10/08 08:50:42;;;;;;;17.42;12.10;;;;;;;13.15;73.32;102349.72;5034601;28;20404;-66
2021/10/08 08:53:09;;;;;;;15.77;11.40;;;;;;;13.10;72.71;102360.00;5035727;28;20054;-65
2021/10/08 08:55:37;;;;;;;20.48;12.25;;;;;;;12.99;73.00;102352.91;5036251;28;20045;-65
2021/10/08 08:58:04;;;;;;;20.98;12.02;;;;;;;13.20;72.80;102351.59;5036234;28;20550;-65
2021/10/08 09:00:32;;;;;;;22.88;12.80;;;;;;;13.34;72.31;102353.41;5018737;28;20045;-68
2021/10/08 09:03:05;;;;;;;25.63;13.73;;;;;;;13.11;72.91;102340.34;5039234;28;20492;-68
2021/10/08 09:05:35;;;;;;;19.58;12.10;;;;;;;13.29;72.56;102347.91;5036286;28;20053;-67
2021/10/08 09:08:07;;;;;;;22.75;12.82;;;;;;;13.71;71.22;102338.03;5001482;28;20042;-67
2021/10/08 09:10:38;;;;;;;18.15;11.95;;;;;;;13.80;70.17;102339.88;5034307;28;20049;-65
2021/10/08 09:13:05;;;;;;;18.85;12.02;;;;;;;13.80;69.62;102342.66;5018459;28;20060;-66
2021/10/08 09:15:55;;;;;;;20.17;11.90;;;;;;;13.39;71.12;102345.03;5024184;28;20049;-67
2021/10/08 09:18:27;;;;;;;20.48;10.85;;;;;;;13.49;70.58;102347.69;5036605;28;20516;-67
2021/10/08 09:21:02;;;;;;;19.25;10.57;;;;;;;13.57;70.04;102346.25;5034785;28;20057;-67
2021/10/08 09:23:37;;;;;;;17.88;10.07;;;;;;;13.79;69.50;102337.41;5033613;28;20612;-67
2021/10/08 09:26:23;;;;;;;19.60;10.05;;;;;;;13.65;69.84;102336.47;5035853;28;20053;-68
2021/10/08 09:29:00;;;;;;;17.70;10.02;;;;;;;13.58;69.37;102334.06;5035368;28;20053;-67
2021/10/08 09:31:37;;;;;;;15.48;10.35;;;;;;;13.60;69.89;102331.81;5035045;28;20045;-68
2021/10/08 09:34:16;;;;;;;13.05;9.00;;;;;;;13.92;68.71;102323.66;5015327;28;20041;-70
2021/10/08 09:36:48;;;;;;;21.85;9.45;;;;;;;14.16;68.01;102326.38;5033097;28;20057;-68
2021/10/08 09:39:31;;;;;;;13.65;9.05;;;;;;;14.14;67.94;102323.91;5036356;28;20045;-68
2021/10/08 09:42:08;;;;;;;17.70;9.50;;;;;;;14.18;67.63;102324.13;5033802;28;20057;-68
2021/10/08 09:44:38;;;;;;;14.05;8.25;;;;;;;14.10;67.51;102331.19;5033866;28;20464;-68
2021/10/08 09:47:10;;;;;;;16.23;7.63;;;;;;;13.99;67.14;102320.53;5036007;28;20053;-68
2021/10/08 09:49:38;;;;;;;18.98;8.23;;;;;;;14.06;67.13;102310.72;5033697;28;20469;-68
2021/10/08 09:52:30;;;;;;;13.05;8.13;;;;;;;14.16;67.02;102305.03;5036487;28;20056;-68
2021/10/08 09:55:03;;;;;;;18.70;8.23;;;;;;;14.31;66.79;102310.38;5034174;28;20053;-68
2021/10/08 09:57:53;;;;;;;15.45;8.75;;;;;;;14.32;67.18;102312.03;5033985;28;20054;-67
2021/10/08 10:00:37;;;;;;;14.13;7.97;;;;;;;14.27;66.87;102306.59;5026680;28;20045;-67
2021/10/08 10:03:07;;;;;;;12.50;7.20;;;;;;;14.44;66.68;102304.09;5036194;28;20052;-76
2021/10/08 10:05:35;;;;;;;15.07;7.60;;;;;;;14.67;65.83;102296.78;5026661;28;20048;-75
2021/10/08 10:08:03;;;;;;;14.75;8.27;;;;;;;14.91;65.42;102296.66;5038684;28;20543;-76
2021/10/08 10:10:32;;;;;;;13.80;6.13;;;;;;;14.71;64.06;102299.78;5034240;28;20040;-76
2021/10/08 10:13:00;;;;;;;15.27;7.15;;;;;;;14.65;64.32;102294.34;5034705;28;20049;-75
2021/10/08 10:15:28;;;;;;;15.63;7.38;;;;;;;14.74;64.69;102290.84;5027893;28;20058;-75
2021/10/08 10:17:56;;;;;;;15.15;7.32;;;;;;;14.81;64.34;102283.81;5024295;28;20049;-76
2021/10/08 10:20:25;;;;;;;17.37;6.80;;;;;;;14.92;63.79;102285.28;5034823;28;20045;-75
2021/10/08 10:22:52;;;;;;;14.15;6.82;;;;;;;15.04;63.30;102279.22;5034374;28;20057;-75
2021/10/08 10:25:20;;;;;;;10.52;5.53;;;;;;;14.96;62.96;102283.53;5015364;28;20054;-74
2021/10/08 10:27:47;;;;;;;12.98;5.15;;;;;;;15.15;62.57;102277.94;5035915;28;20052;-75
2021/10/08 10:30:17;;;;;;;12.77;5.20;;;;;;;15.36;61.61;102277.22;5034735;28;20425;-76
2021/10/08 10:32:46;;;;;;;7.40;4.20;;;;;;;15.46;60.08;102270.69;5036074;28;20049;-75
2021/10/08 10:35:37;;;;;;;11.95;4.90;;;;;;;15.58;59.29;102279.31;5034119;28;20057;-75
2021/10/08 10:38:27;;;;;;;9.57;4.20;;;;;;;15.63;58.52;102276.44;5037830;28;20424;-73
2021/10/08 10:41:12;;;;;;;;;;;;;;;15.62;58.05;102286.72;5017749;28;20058;-69
2021/10/08 10:43:46;;;;;;;7.65;3.55;;;;;;;15.54;58.39;102276.34;5039514;28;19928;-69
2021/10/08 10:52:03;;;;;;;8.90;3.65;;;;;;;15.81;57.01;102271.88;5027430;28;20421;-66
2021/10/08 10:54:34;;;;;;;8.30;3.60;;;;;;;15.85;56.91;102272.91;5030282;28;20053;-66
2021/10/08 10:57:02;;;;;;;8.10;3.60;;;;;;;15.77;57.21;102269.75;5033658;28;20488;-69
2021/10/08 10:59:31;;;;;;;9.18;3.67;;;;;;;15.78;57.05;102264.97;5033009;28;20054;-64
2021/10/08 11:02:17;;;;;;;6.03;3.50;;;;;;;15.70;57.07;102272.13;5032366;28;20491;-65
2021/10/08 11:04:52;;;;;;;5.65;3.33;;;;;;;15.80;57.13;102262.72;5034258;28;20068;-65
2021/10/08 11:07:24;;;;;;;9.52;3.55;;;;;;;15.88;57.15;102264.78;5028031;28;20049;-66
2021/10/08 11:10:04;;;;;;;6.03;3.38;;;;;;;15.93;57.13;102261.06;5032458;28;20046;-65
2021/10/08 11:12:34;;;;;;;8.48;3.50;;;;;;;16.16;56.66;102266.34;5016084;28;20061;-64
2021/10/08 11:15:17;;;;;;;8.45;3.72;;;;;;;16.18;56.41;102258.50;5034372;28;20052;-64
2021/10/08 11:17:55;;;;;;;8.18;3.67;;;;;;;16.21;56.44;102257.91;5032349;28;20590;-65
2021/10/08 11:20:30;;;;;;;11.40;3.53;;;;;;;16.37;56.14;102256.38;5032688;28;20409;-65
2021/10/08 11:23:00;;;;;;;8.52;3.42;;;;;;;16.29;56.79;102262.72;5033529;28;20057;-65
2021/10/08 11:25:32;;;;;;;10.75;3.65;;;;;;;16.35;56.40;102249.50;5016406;28;20077;-66
2021/10/08 11:28:00;;;;;;;7.13;3.83;;;;;;;16.28;56.58;102254.69;5031368;28;20053;-66
2021/10/08 11:30:37;;;;;;;9.45;3.78;;;;;;;16.24;56.93;102246.16;5033384;28;20046;-67
2021/10/08 11:33:05;;;;;;;8.38;3.72;;;;;;;16.39;56.89;102233.81;5032522;28;20057;-67
2021/10/08 11:35:34;;;;;;;7.18;3.80;;;;;;;16.46;56.84;102239.75;5034427;28;20515;-67
2021/10/08 11:38:05;;;;;;;12.52;7.38;;;;;;;16.43;57.46;102226.50;5033978;28;20497;-65
2021/10/08 11:40:45;;;;;;;10.23;5.95;;;;;;;16.63;56.59;102224.03;5040554;28;20041;-65